Washington, District of Columbia
Traffic Map
Current Weather Conditions
Washington, District of Columbia
Broken Clouds
Broken Clouds
67°
Feels Like: 67°
Wind Chill: 67° Ceiling: 8000
Heat Index: 67° Visibility: 10mi
Dew Point: 59° Wind: 0mph
Humidity: 76% Direction: ° ()
Pressure: 30.29in Gusts: 0mph
Raw Report DataKDCA 200552Z 00000KT 10SM SCT065 BKN080 19/15 A3029 RMK AO2 SLP256 T01940150 10222 20194 56007
Traffic Incident Summary
Active as of:
Severity:
Category:
InformationThere was an issue retrieving the traffic information for this location. Please try a different location or try again shortly.
Advertisements
Track Severe Weather on mobile